createdAt,value
2023-04-16T00:01:18.281Z,20.20
2023-04-16T00:03:46.985Z,20.00
2023-04-16T00:06:15.398Z,18.47
2023-04-16T00:08:43.730Z,17.77
2023-04-16T00:11:12.371Z,20.17
2023-04-16T00:13:40.437Z,18.60
2023-04-16T00:16:09.150Z,20.23
2023-04-16T00:18:39.298Z,20.53
2023-04-16T00:21:08.239Z,19.17
2023-04-16T00:23:36.303Z,20.73
2023-04-16T00:26:04.376Z,20.87
2023-04-16T00:28:32.396Z,20.70
2023-04-16T00:31:02.078Z,21.10
2023-04-16T00:33:30.873Z,20.87
2023-04-16T00:36:00.296Z,21.23
2023-04-16T00:38:30.344Z,21.17
2023-04-16T00:40:58.816Z,22.07
2023-04-16T00:43:27.966Z,21.40
2023-04-16T00:45:58.022Z,21.67
2023-04-16T00:48:27.837Z,21.03
2023-04-16T00:50:56.515Z,21.40
2023-04-16T00:53:26.537Z,21.33
2023-04-16T00:55:56.093Z,21.40
2023-04-16T00:58:24.582Z,21.63
2023-04-16T01:00:52.871Z,20.33
2023-04-16T01:03:21.155Z,21.50
2023-04-16T01:05:50.631Z,20.80
2023-04-16T01:08:19.986Z,21.53
2023-04-16T01:10:49.406Z,20.00
2023-04-16T01:13:17.435Z,20.70
2023-04-16T01:15:45.593Z,19.10
2023-04-16T01:18:17.181Z,20.53
2023-04-16T01:20:46.905Z,20.33
2023-04-16T01:23:15.175Z,20.13
2023-04-16T01:25:43.288Z,19.77
2023-04-16T01:28:12.269Z,18.93
2023-04-16T01:30:40.456Z,18.67
2023-04-16T01:33:22.622Z,20.13
2023-04-16T01:35:52.064Z,19.40
2023-04-16T01:38:20.207Z,20.20
2023-04-16T01:40:48.219Z,20.03
2023-04-16T01:43:16.324Z,18.67
2023-04-16T01:45:44.380Z,19.63
2023-04-16T01:48:13.506Z,19.20
2023-04-16T01:50:41.853Z,19.07
2023-04-16T01:53:11.289Z,19.03
2023-04-16T01:55:39.357Z,18.87
2023-04-16T01:58:10.560Z,21.03
2023-04-16T02:00:39.729Z,20.40
2023-04-16T02:03:07.922Z,20.60
2023-04-16T02:05:36.051Z,21.53
2023-04-16T02:08:04.236Z,19.20
2023-04-16T02:10:33.620Z,21.13
2023-04-16T02:13:01.982Z,19.53
2023-04-16T02:15:30.308Z,20.13
2023-04-16T02:17:58.607Z,20.20
2023-04-16T02:20:27.163Z,20.17
2023-04-16T02:22:59.807Z,21.20
2023-04-16T02:25:28.945Z,21.30
2023-04-16T02:28:00.150Z,21.43
2023-04-16T02:30:37.136Z,20.33
2023-04-16T02:33:07.310Z,20.33
2023-04-16T02:35:36.460Z,20.23
2023-04-16T02:38:05.302Z,20.27
2023-04-16T02:40:33.580Z,22.17
2023-04-16T02:43:02.990Z,21.30
2023-04-16T02:45:31.606Z,21.20
2023-04-16T02:48:00.686Z,19.40
2023-04-16T02:50:28.785Z,20.80
2023-04-16T02:52:56.840Z,20.37
2023-04-16T02:55:24.885Z,20.40
2023-04-16T02:57:52.984Z,21.67
2023-04-16T03:00:22.695Z,19.43
2023-04-16T03:02:50.908Z,21.63
2023-04-16T03:05:19.419Z,20.50
2023-04-16T03:07:48.005Z,21.60
2023-04-16T03:10:16.887Z,22.40
2023-04-16T03:12:44.944Z,21.13
2023-04-16T03:15:13.146Z,21.00
2023-04-16T03:17:43.161Z,20.67
2023-04-16T03:20:11.699Z,22.23
2023-04-16T03:22:39.959Z,20.33
2023-04-16T03:25:08.936Z,20.40
2023-04-16T03:27:36.976Z,21.30
2023-04-16T03:30:06.443Z,20.77
2023-04-16T03:32:36.073Z,19.70
2023-04-16T03:35:08.286Z,19.50
2023-04-16T03:37:36.833Z,20.73
2023-04-16T03:40:07.042Z,20.97
2023-04-16T03:42:35.421Z,20.40
2023-04-16T03:45:04.083Z,20.17
2023-04-16T03:47:33.286Z,21.13
2023-04-16T03:50:04.067Z,19.00
2023-04-16T03:52:33.431Z,19.37
2023-04-16T03:55:03.727Z,19.67
2023-04-16T03:57:32.697Z,18.63
2023-04-16T04:00:10.096Z,19.00
2023-04-16T04:02:56.924Z,19.63
2023-04-16T04:05:25.210Z,20.13
2023-04-16T04:07:55.144Z,19.50
2023-04-16T04:10:23.851Z,20.00
2023-04-16T04:12:52.023Z,22.47
2023-04-16T04:15:20.197Z,20.90
2023-04-16T04:17:48.753Z,21.37
2023-04-16T04:20:17.021Z,20.97
2023-04-16T04:22:47.077Z,21.60
2023-04-16T04:25:17.541Z,21.50
2023-04-16T04:27:45.616Z,22.57
2023-04-16T04:30:13.717Z,21.73
2023-04-16T04:32:42.809Z,21.70
2023-04-16T04:35:11.264Z,21.60
2023-04-16T04:37:39.338Z,21.73
2023-04-16T04:40:18.105Z,22.70
2023-04-16T04:42:46.873Z,21.33
2023-04-16T04:45:15.230Z,22.27
2023-04-16T04:47:43.401Z,21.87
2023-04-16T04:50:12.198Z,22.17
2023-04-16T04:52:40.214Z,22.33
2023-04-16T04:55:09.737Z,21.23
2023-04-16T04:57:39.202Z,22.57
2023-04-16T05:00:08.861Z,22.20
2023-04-16T05:02:45.899Z,21.27
2023-04-16T05:05:14.034Z,21.47
2023-04-16T05:07:42.098Z,20.57
2023-04-16T05:10:11.051Z,20.80
2023-04-16T05:12:42.652Z,20.97
2023-04-16T05:15:11.484Z,20.67
2023-04-16T05:17:39.577Z,20.67
2023-04-16T05:20:09.125Z,20.40
2023-04-16T05:22:37.208Z,20.03
2023-04-16T05:25:05.731Z,20.03
2023-04-16T05:27:33.761Z,20.93
2023-04-16T05:30:03.249Z,20.60
2023-04-16T05:32:31.323Z,19.73
2023-04-16T05:34:59.431Z,20.10
2023-04-16T05:37:27.457Z,20.13
2023-04-16T05:39:55.529Z,19.40
2023-04-16T05:42:23.577Z,19.90
2023-04-16T05:44:52.345Z,20.53
2023-04-16T05:47:22.008Z,19.60
2023-04-16T05:49:50.053Z,21.00
2023-04-16T05:52:18.088Z,19.63
2023-04-16T05:54:46.122Z,20.07
2023-04-16T05:57:14.747Z,19.73
2023-04-16T05:59:42.786Z,19.77
2023-04-16T06:02:10.963Z,20.73
2023-04-16T06:04:40.439Z,20.13
2023-04-16T06:07:08.470Z,19.63
2023-04-16T06:09:36.492Z,21.03
2023-04-16T06:12:05.215Z,21.00
2023-04-16T06:14:33.252Z,20.57
2023-04-16T06:17:01.368Z,19.77
2023-04-16T06:19:29.449Z,21.37
2023-04-16T06:21:58.967Z,19.80
2023-04-16T06:24:26.987Z,19.87
2023-04-16T06:26:55.441Z,21.23
2023-04-16T06:29:30.686Z,20.57
2023-04-16T06:32:06.119Z,19.77
2023-04-16T06:34:34.262Z,20.07
2023-04-16T06:37:03.807Z,20.70
2023-04-16T06:39:32.099Z,20.33
2023-04-16T06:42:00.176Z,19.87
2023-04-16T06:44:28.287Z,19.90
2023-04-16T06:46:56.363Z,19.50
2023-04-16T06:49:24.440Z,19.77
2023-04-16T06:51:52.448Z,20.23
2023-04-16T06:54:21.893Z,18.70
2023-04-16T06:56:49.902Z,21.10
2023-04-16T06:59:17.967Z,19.30
2023-04-16T07:01:46.102Z,19.07
2023-04-16T07:04:14.198Z,19.87
2023-04-16T07:06:42.275Z,20.23
2023-04-16T07:09:10.476Z,19.47
2023-04-16T07:11:40.190Z,19.63
2023-04-16T07:14:08.256Z,19.17
2023-04-16T07:16:37.650Z,19.80
2023-04-16T07:19:05.843Z,19.73
2023-04-16T07:21:33.904Z,19.57
2023-04-16T07:24:01.894Z,19.23
2023-04-16T07:26:29.923Z,19.53
2023-04-16T07:28:59.262Z,18.27
2023-04-16T07:31:27.917Z,18.37
2023-04-16T07:33:56.002Z,18.63
2023-04-16T07:36:24.029Z,17.83
2023-04-16T07:38:52.034Z,17.50
2023-04-16T07:41:20.149Z,18.50
2023-04-16T07:43:48.191Z,18.00
2023-04-16T07:46:17.581Z,18.70
2023-04-16T07:48:45.619Z,17.47
2023-04-16T07:51:13.717Z,16.67
2023-04-16T07:53:42.106Z,18.20
2023-04-16T07:56:10.290Z,18.40
2023-04-16T07:58:38.313Z,18.17
2023-04-16T08:01:06.547Z,16.77
2023-04-16T08:03:36.093Z,17.17
2023-04-16T08:06:04.501Z,17.37
2023-04-16T08:08:32.601Z,17.20
2023-04-16T08:11:00.663Z,16.47
2023-04-16T08:13:28.744Z,16.67
2023-04-16T08:15:58.055Z,16.27
2023-04-16T08:18:26.298Z,17.70
2023-04-16T08:20:56.101Z,18.20
2023-04-16T08:23:24.152Z,17.03
2023-04-16T08:25:53.130Z,17.33
2023-04-16T08:28:21.198Z,15.43
2023-04-16T08:30:49.233Z,15.80
2023-04-16T08:33:17.271Z,15.87
2023-04-16T08:35:45.356Z,15.73
2023-04-16T08:38:14.750Z,15.97
2023-04-16T08:40:43.824Z,15.37
2023-04-16T08:43:13.853Z,15.90
2023-04-16T08:45:42.854Z,15.53
2023-04-16T08:48:12.731Z,15.07
2023-04-16T08:50:42.243Z,15.40
2023-04-16T08:53:17.151Z,16.10
2023-04-16T08:55:48.974Z,15.77
2023-04-16T08:58:19.841Z,15.00
2023-04-16T09:00:48.526Z,16.30
2023-04-16T09:03:16.943Z,15.67
2023-04-16T09:05:45.497Z,15.57
2023-04-16T09:08:17.498Z,15.73
2023-04-16T09:10:48.984Z,16.00
2023-04-16T09:13:20.420Z,15.50
2023-04-16T09:15:48.918Z,15.70
2023-04-16T09:18:18.570Z,15.47
2023-04-16T09:20:46.890Z,16.00
2023-04-16T09:23:16.306Z,15.80
2023-04-16T09:25:44.520Z,15.80
2023-04-16T09:28:12.577Z,15.40
2023-04-16T09:30:41.040Z,15.10
2023-04-16T09:33:22.363Z,15.13
2023-04-16T09:35:53.121Z,15.10
2023-04-16T09:38:22.559Z,16.07
2023-04-16T09:41:08.146Z,14.80
2023-04-16T09:43:36.465Z,16.37
2023-04-16T09:46:08.304Z,15.57
2023-04-16T09:48:36.578Z,13.90
2023-04-16T09:51:07.735Z,15.17
2023-04-16T09:53:37.156Z,14.83
2023-04-16T09:56:07.882Z,15.93
2023-04-16T09:58:37.491Z,15.33
2023-04-16T10:01:08.397Z,15.83
2023-04-16T10:03:37.873Z,15.50
2023-04-16T10:06:10.626Z,15.10
2023-04-16T10:08:44.497Z,15.20
2023-04-16T10:11:12.772Z,16.07
2023-04-16T10:13:40.962Z,15.43
2023-04-16T10:16:09.649Z,15.90
2023-04-16T10:18:38.944Z,15.10
2023-04-16T10:21:07.970Z,15.30
2023-04-16T10:23:36.473Z,15.23
2023-04-16T10:26:07.320Z,14.63
2023-04-16T10:28:36.329Z,15.53
2023-04-16T10:31:06.516Z,15.47
2023-04-16T10:33:36.761Z,15.67
2023-04-16T10:36:12.664Z,15.37
2023-04-16T10:38:42.066Z,16.13
2023-04-16T10:41:11.583Z,15.97
2023-04-16T10:43:46.166Z,15.40
2023-04-16T10:46:23.538Z,15.93
2023-04-16T10:48:54.037Z,16.23
2023-04-16T10:51:27.996Z,15.23
2023-04-16T10:53:57.261Z,15.47
2023-04-16T10:56:27.926Z,15.77
2023-04-16T10:58:59.592Z,14.27
2023-04-16T11:01:35.418Z,15.90
2023-04-16T11:04:45.091Z,15.20
2023-04-16T11:07:19.929Z,15.30
2023-04-16T11:09:59.860Z,15.50
2023-04-16T11:12:37.191Z,16.10
2023-04-16T11:15:06.659Z,15.63
2023-04-16T11:17:39.030Z,15.03
2023-04-16T11:20:19.623Z,15.43
2023-04-16T11:22:49.009Z,16.13
2023-04-16T11:25:21.587Z,15.23
2023-04-16T11:27:51.188Z,15.53
2023-04-16T11:30:20.105Z,14.70
2023-04-16T11:32:48.585Z,15.57
2023-04-16T11:35:19.518Z,16.00
2023-04-16T11:37:48.313Z,16.03
2023-04-16T11:40:16.616Z,14.67
2023-04-16T11:42:45.783Z,15.50
2023-04-16T11:45:20.249Z,15.03
2023-04-16T11:47:51.885Z,15.77
2023-04-16T11:50:22.776Z,15.47
2023-04-16T11:52:51.772Z,15.93
2023-04-16T11:55:20.505Z,15.03
2023-04-16T11:57:48.850Z,14.77
2023-04-16T12:00:19.047Z,15.67
2023-04-16T12:02:53.198Z,15.97
2023-04-16T12:05:29.941Z,15.53
2023-04-16T12:07:58.364Z,15.67
2023-04-16T12:10:27.064Z,15.30
2023-04-16T12:12:55.246Z,16.13
2023-04-16T12:15:24.775Z,15.07
2023-04-16T12:18:07.957Z,15.80
2023-04-16T12:20:41.917Z,16.03
2023-04-16T12:23:10.666Z,14.77
2023-04-16T12:25:38.776Z,15.43
2023-04-16T12:28:06.912Z,16.63
2023-04-16T12:30:51.345Z,15.97
2023-04-16T12:33:21.155Z,15.40
2023-04-16T12:35:49.277Z,15.70
2023-04-16T12:38:20.446Z,15.07
2023-04-16T12:40:50.028Z,15.23
2023-04-16T12:43:18.463Z,14.77
2023-04-16T12:45:47.939Z,14.90
2023-04-16T12:48:16.557Z,13.60
2023-04-16T12:50:44.811Z,14.10
2023-04-16T12:53:13.075Z,14.40
2023-04-16T12:55:41.215Z,13.30
2023-04-16T12:58:12.320Z,13.97
2023-04-16T13:00:41.396Z,13.93
2023-04-16T13:03:11.115Z,13.70
2023-04-16T13:05:39.338Z,13.37
2023-04-16T13:08:07.736Z,14.73
2023-04-16T13:10:36.498Z,14.07
2023-04-16T13:13:04.562Z,13.00
2023-04-16T13:15:32.587Z,14.23
2023-04-16T13:18:00.636Z,13.00
2023-04-16T13:20:30.067Z,14.07
2023-04-16T13:22:58.398Z,13.13
2023-04-16T13:25:26.442Z,13.87
2023-04-16T13:27:54.488Z,13.50
2023-04-16T13:30:22.553Z,15.00
2023-04-16T13:32:50.772Z,15.83
2023-04-16T13:35:18.967Z,14.47
2023-04-16T13:37:48.343Z,15.13
2023-04-16T13:40:16.489Z,14.23
2023-04-16T13:42:44.507Z,13.83
2023-04-16T13:45:12.749Z,14.53
2023-04-16T13:47:42.491Z,14.17
2023-04-16T13:50:11.494Z,14.60
2023-04-16T13:52:39.528Z,14.23
2023-04-16T13:55:10.579Z,15.10
2023-04-16T13:57:38.662Z,14.63
2023-04-16T14:00:11.861Z,13.70
2023-04-16T14:02:42.463Z,14.07
2023-04-16T14:05:10.751Z,13.40
2023-04-16T14:07:39.041Z,13.60
2023-04-16T14:10:09.959Z,14.13
2023-04-16T14:12:38.296Z,13.50
2023-04-16T14:15:09.492Z,13.83
2023-04-16T14:17:38.114Z,14.80
2023-04-16T14:20:07.567Z,14.20
2023-04-16T14:22:35.598Z,14.70
2023-04-16T14:25:03.768Z,15.10
2023-04-16T14:27:34.139Z,14.57
2023-04-16T14:30:02.286Z,14.17
2023-04-16T14:32:30.522Z,14.50
2023-04-16T14:34:58.616Z,14.00
2023-04-16T14:37:27.310Z,15.63
2023-04-16T14:39:55.544Z,14.17
2023-04-16T14:42:23.669Z,14.33
2023-04-16T14:44:53.045Z,13.87
2023-04-16T14:47:21.175Z,14.20
2023-04-16T14:49:49.227Z,14.33
2023-04-16T14:52:17.477Z,14.00
2023-04-16T14:54:45.612Z,14.17
2023-04-16T14:57:13.632Z,14.47
2023-04-16T14:59:41.697Z,14.73
2023-04-16T15:02:11.277Z,14.23
2023-04-16T15:04:39.665Z,14.43
2023-04-16T15:07:08.127Z,13.87
2023-04-16T15:09:36.479Z,14.23
2023-04-16T15:12:04.733Z,14.30
2023-04-16T15:14:32.775Z,14.23
2023-04-16T15:17:00.927Z,14.03
2023-04-16T15:19:30.401Z,14.20
2023-04-16T15:21:58.432Z,13.73
2023-04-16T15:24:26.481Z,13.33
2023-04-16T15:26:54.534Z,13.60
2023-04-16T15:29:22.578Z,13.23
2023-04-16T15:31:50.794Z,14.70
2023-04-16T15:34:18.900Z,13.90
2023-04-16T15:36:48.331Z,13.10
2023-04-16T15:39:16.378Z,13.77
2023-04-16T15:41:59.770Z,13.50
2023-04-16T15:44:30.950Z,13.53
2023-04-16T15:46:59.012Z,13.93
2023-04-16T15:49:27.191Z,14.00
2023-04-16T15:51:56.981Z,13.47
2023-04-16T15:54:25.272Z,14.63
2023-04-16T15:56:53.354Z,15.47
2023-04-16T15:59:21.479Z,14.10
2023-04-16T16:01:49.626Z,15.70
2023-04-16T16:04:17.897Z,15.63
2023-04-16T16:06:46.608Z,15.07
2023-04-16T16:09:16.096Z,15.63
2023-04-16T16:11:44.118Z,15.03
2023-04-16T16:14:12.186Z,14.40
2023-04-16T16:16:40.843Z,15.50
2023-04-16T16:19:09.129Z,15.57
2023-04-16T16:21:37.689Z,14.97
2023-04-16T16:24:05.966Z,15.30
2023-04-16T16:26:35.380Z,14.57
2023-04-16T16:29:03.508Z,15.37
2023-04-16T16:31:31.727Z,14.50
2023-04-16T16:33:59.864Z,14.47
2023-04-16T16:36:29.671Z,14.30
2023-04-16T16:38:57.916Z,14.97
2023-04-16T16:41:25.951Z,15.20
2023-04-16T16:43:56.234Z,15.07
2023-04-16T16:46:24.365Z,14.97
2023-04-16T16:48:52.398Z,16.50
2023-04-16T16:51:20.464Z,14.77
2023-04-16T16:53:48.516Z,15.67
2023-04-16T16:56:16.662Z,15.10
2023-04-16T16:58:44.696Z,15.37
2023-04-16T17:01:14.187Z,15.30
2023-04-16T17:03:42.523Z,14.97
2023-04-16T17:06:11.152Z,15.67
2023-04-16T17:08:39.287Z,15.97
2023-04-16T17:11:07.338Z,15.53
2023-04-16T17:13:35.395Z,16.00
2023-04-16T17:16:03.479Z,15.47
2023-04-16T17:18:32.930Z,15.70
2023-04-16T17:21:01.116Z,15.00
2023-04-16T17:23:29.210Z,16.07
2023-04-16T17:25:57.264Z,15.47
2023-04-16T17:28:26.000Z,14.63
2023-04-16T17:30:56.921Z,15.57
2023-04-16T17:33:24.981Z,14.57
2023-04-16T17:35:54.441Z,15.73
2023-04-16T17:38:22.504Z,16.10
2023-04-16T17:40:50.554Z,15.97
2023-04-16T17:43:18.610Z,15.20
2023-04-16T17:45:46.677Z,15.67
2023-04-16T17:48:14.745Z,15.57
2023-04-16T17:50:43.044Z,15.67
2023-04-16T17:53:12.504Z,16.10
2023-04-16T17:55:42.600Z,16.10
2023-04-16T17:58:10.797Z,16.37
2023-04-16T18:00:38.837Z,15.90
2023-04-16T18:03:09.705Z,15.77
2023-04-16T18:05:37.846Z,17.27
2023-04-16T18:08:06.218Z,15.40
2023-04-16T18:10:35.646Z,16.67
2023-04-16T18:13:03.744Z,15.93
2023-04-16T18:15:31.815Z,16.70
2023-04-16T18:17:59.871Z,15.57
2023-04-16T18:20:27.947Z,16.43
2023-04-16T18:22:56.003Z,16.47
2023-04-16T18:25:33.609Z,16.47
2023-04-16T18:28:05.120Z,17.27
2023-04-16T18:30:33.794Z,16.87
2023-04-16T18:35:33.006Z,15.97
2023-04-16T18:38:01.243Z,15.87
2023-04-16T18:40:30.085Z,16.47
2023-04-16T18:42:58.130Z,16.40
2023-04-16T18:45:28.360Z,16.83
2023-04-16T18:47:58.672Z,16.13
2023-04-16T18:50:26.914Z,16.33
2023-04-16T18:52:54.954Z,15.90
2023-04-16T18:55:23.033Z,15.67
2023-04-16T18:57:51.097Z,16.20
2023-04-16T19:00:19.905Z,17.30
2023-04-16T19:02:49.450Z,16.00
2023-04-16T19:05:18.574Z,17.33
2023-04-16T19:07:46.591Z,17.60
2023-04-16T19:10:14.662Z,17.67
2023-04-16T19:12:42.709Z,16.73
2023-04-16T19:15:11.405Z,17.20
2023-04-16T19:17:39.841Z,17.50
2023-04-16T19:20:11.379Z,16.63
2023-04-16T19:22:39.737Z,16.53
2023-04-16T19:25:08.597Z,17.20
2023-04-16T19:27:36.644Z,18.20
2023-04-16T19:30:06.233Z,17.43
2023-04-16T19:32:34.302Z,17.47
2023-04-16T19:35:02.453Z,18.03
2023-04-16T19:37:31.858Z,16.53
2023-04-16T19:40:01.847Z,17.07
2023-04-16T19:42:29.878Z,16.80
2023-04-16T19:44:57.934Z,16.87
2023-04-16T19:47:26.203Z,16.90
2023-04-16T19:49:54.421Z,16.87
2023-04-16T19:52:22.472Z,16.80
2023-04-16T19:54:51.888Z,16.90
2023-04-16T19:57:19.911Z,16.77
2023-04-16T19:59:47.939Z,16.63
2023-04-16T20:02:15.971Z,15.50
2023-04-16T20:04:44.575Z,17.10
2023-04-16T20:07:12.561Z,15.03
2023-04-16T20:09:40.583Z,16.00
2023-04-16T20:12:10.033Z,14.27
2023-04-16T20:14:38.070Z,16.80
2023-04-16T20:17:09.551Z,15.53
2023-04-16T20:19:39.084Z,15.00
2023-04-16T20:22:07.479Z,16.50
2023-04-16T20:24:38.485Z,15.70
2023-04-16T20:27:06.631Z,15.60
2023-04-16T20:29:36.008Z,15.60
2023-04-16T20:32:04.034Z,15.17
2023-04-16T20:34:32.074Z,16.33
2023-04-16T20:37:00.153Z,15.67
2023-04-16T20:39:28.158Z,15.97
2023-04-16T20:41:57.492Z,15.67
2023-04-16T20:44:32.922Z,16.50
2023-04-16T20:47:02.381Z,16.20
2023-04-16T20:49:31.064Z,15.40
2023-04-16T20:51:59.114Z,15.77
2023-04-16T20:54:27.224Z,16.47
2023-04-16T20:56:55.869Z,15.13
2023-04-16T20:59:24.083Z,15.83
2023-04-16T21:01:52.954Z,15.80
2023-04-16T21:04:22.534Z,16.23
2023-04-16T21:06:53.394Z,15.50
2023-04-16T21:09:21.609Z,15.73
2023-04-16T21:11:50.008Z,15.87
2023-04-16T21:14:17.980Z,15.57
2023-04-16T21:16:46.085Z,15.53
2023-04-16T21:19:14.127Z,16.67
2023-04-16T21:21:43.563Z,15.83
2023-04-16T21:24:11.617Z,16.70
2023-04-16T21:26:39.654Z,16.10
2023-04-16T21:29:07.688Z,16.87
2023-04-16T21:31:36.036Z,15.67
2023-04-16T21:34:04.150Z,16.87
2023-04-16T21:36:34.050Z,17.47
2023-04-16T21:39:03.489Z,16.57
2023-04-16T21:41:31.553Z,17.97
2023-04-16T21:43:59.569Z,18.67
2023-04-16T21:46:27.833Z,16.07
2023-04-16T21:48:55.933Z,17.07
2023-04-16T21:51:29.112Z,16.30
2023-04-16T21:53:57.604Z,16.77
2023-04-16T21:56:27.037Z,16.97
2023-04-16T21:58:55.082Z,15.27
2023-04-16T22:01:23.141Z,17.57
2023-04-16T22:03:52.037Z,17.70
2023-04-16T22:06:20.454Z,16.77
2023-04-16T22:08:49.760Z,16.57
2023-04-16T22:11:17.890Z,17.03
2023-04-16T22:13:47.720Z,15.73
2023-04-16T22:16:16.200Z,16.60
2023-04-16T22:18:45.115Z,16.10
2023-04-16T22:21:13.152Z,18.27
2023-04-16T22:23:41.170Z,17.23
2023-04-16T22:26:09.392Z,17.37
2023-04-16T22:28:37.418Z,14.57
2023-04-16T22:31:07.085Z,15.87
2023-04-16T22:33:35.290Z,17.73
2023-04-16T22:36:03.352Z,18.87
2023-04-16T22:38:31.377Z,17.57
2023-04-16T22:40:59.422Z,17.83
2023-04-16T22:43:27.448Z,15.57
2023-04-16T22:46:04.440Z,17.00
2023-04-16T22:48:36.199Z,17.13
2023-04-16T22:51:04.665Z,16.87
2023-04-16T22:53:32.944Z,16.97
2023-04-16T22:56:01.096Z,16.77
2023-04-16T22:58:29.125Z,16.80
2023-04-16T23:00:59.453Z,17.50
2023-04-16T23:03:27.782Z,16.40
2023-04-16T23:05:57.251Z,16.53
2023-04-16T23:08:25.352Z,17.17
2023-04-16T23:10:53.409Z,18.23
2023-04-16T23:13:21.436Z,15.77
2023-04-16T23:15:49.562Z,16.83
2023-04-16T23:18:17.698Z,16.73
2023-04-16T23:20:45.729Z,18.60
2023-04-16T23:23:15.160Z,19.33
2023-04-16T23:25:43.201Z,19.23
2023-04-16T23:28:11.296Z,19.47
2023-04-16T23:30:39.375Z,18.63
2023-04-16T23:33:07.664Z,19.17
2023-04-16T23:35:35.900Z,18.33
2023-04-16T23:38:04.092Z,19.80
2023-04-16T23:40:33.462Z,17.43
2023-04-16T23:43:01.523Z,18.70
2023-04-16T23:45:29.530Z,20.57
2023-04-16T23:47:57.683Z,18.97
2023-04-16T23:50:25.768Z,21.07
2023-04-16T23:52:53.849Z,21.40
2023-04-16T23:55:22.175Z,21.07
2023-04-16T23:57:51.518Z,20.87
